createdAt,value
2019-04-05T00:00:47.866Z,168.47
2019-04-05T00:03:16.550Z,227.62
2019-04-05T00:05:45.373Z,352.40
2019-04-05T00:08:14.390Z,326.95
2019-04-05T00:10:43.226Z,212.38
2019-04-05T00:13:12.168Z,235.80
2019-04-05T00:15:40.951Z,285.22
2019-04-05T00:18:09.606Z,433.68
2019-04-05T00:20:38.648Z,366.55
2019-04-05T00:23:07.593Z,311.98
2019-04-05T00:25:36.369Z,378.15
2019-04-05T00:28:05.169Z,140.45
2019-04-05T00:30:36.295Z,344.95
2019-04-05T00:33:05.141Z,269.87
2019-04-05T00:35:33.840Z,300.25
2019-04-05T00:38:02.533Z,377.68
2019-04-05T00:40:31.300Z,487.12
2019-04-05T00:43:00.054Z,333.00
2019-04-05T00:45:28.963Z,408.25
2019-04-05T00:47:57.927Z,398.68
2019-04-05T00:50:26.710Z,281.80
2019-04-05T00:52:55.698Z,262.55
2019-04-05T00:55:24.458Z,247.15
2019-04-05T00:57:53.304Z,237.63
2019-04-05T01:00:22.517Z,392.73
2019-04-05T01:02:51.542Z,245.57
2019-04-05T01:05:20.249Z,623.52
2019-04-05T01:07:49.174Z,159.37
2019-04-05T01:10:18.777Z,295.70
2019-04-05T01:12:48.047Z,329.95
2019-04-05T01:15:17.187Z,248.82
2019-04-05T01:17:46.181Z,288.75
2019-04-05T01:20:15.086Z,282.25
2019-04-05T01:22:46.418Z,237.80
2019-04-05T01:25:15.814Z,312.25
2019-04-05T01:27:44.911Z,445.40
2019-04-05T01:30:14.995Z,265.32
2019-04-05T01:32:43.994Z,264.32
2019-04-05T01:35:13.186Z,379.13
2019-04-05T01:37:42.702Z,282.87
2019-04-05T01:40:11.911Z,316.15
2019-04-05T01:42:41.448Z,299.95
2019-04-05T01:45:10.484Z,238.40
2019-04-05T01:47:39.405Z,263.43
2019-04-05T01:50:08.947Z,590.08
2019-04-05T01:52:38.175Z,421.65
2019-04-05T01:55:08.045Z,292.82
2019-04-05T01:57:36.975Z,465.23
2019-04-05T02:00:07.236Z,562.52
2019-04-05T02:02:35.972Z,633.30
2019-04-05T02:05:06.459Z,328.10
2019-04-05T02:07:35.455Z,391.60
2019-04-05T02:10:05.050Z,429.90
2019-04-05T02:12:34.488Z,563.80
2019-04-05T02:15:03.592Z,525.00
2019-04-05T02:17:32.350Z,631.20
2019-04-05T02:20:01.113Z,244.22
2019-04-05T02:22:29.803Z,852.62
2019-04-05T02:24:58.572Z,556.65
2019-04-05T02:27:27.901Z,426.98
2019-04-05T02:29:56.917Z,516.70
2019-04-05T02:32:25.685Z,435.05
2019-04-05T02:34:54.634Z,760.87
2019-04-05T02:37:23.974Z,453.42
2019-04-05T02:39:52.972Z,450.10
2019-04-05T02:42:22.158Z,701.35
2019-04-05T02:44:52.439Z,487.75
2019-04-05T02:47:22.111Z,587.48
2019-04-05T02:49:52.462Z,529.08
2019-04-05T02:52:22.190Z,511.65
2019-04-05T02:54:52.897Z,470.15
2019-04-05T02:57:22.805Z,685.83
2019-04-05T02:59:52.797Z,462.40
2019-04-05T03:02:21.997Z,517.10
2019-04-05T03:04:50.689Z,312.50
2019-04-05T03:07:19.781Z,328.65
2019-04-05T03:09:49.413Z,250.43
2019-04-05T03:12:19.216Z,272.58
2019-04-05T03:14:51.408Z,206.25
2019-04-05T03:20:09.823Z,173.05
2019-04-05T03:22:40.853Z,162.90
2019-04-05T03:25:09.689Z,184.57
2019-04-05T03:27:39.635Z,174.75
2019-04-05T03:30:08.782Z,139.90
2019-04-05T03:32:38.447Z,150.75
2019-04-05T03:35:07.372Z,149.47
2019-04-05T03:37:36.239Z,126.70
2019-04-05T03:40:05.937Z,127.35
2019-04-05T03:42:35.646Z,129.05
2019-04-05T03:45:04.659Z,129.25
2019-04-05T03:47:33.477Z,145.10
2019-04-05T03:50:02.337Z,149.55
2019-04-05T03:52:31.828Z,138.77
2019-04-05T03:55:00.581Z,123.72
2019-04-05T03:57:29.955Z,134.90
2019-04-05T04:00:01.523Z,134.67
2019-04-05T04:02:30.712Z,122.75
2019-04-05T04:04:59.778Z,122.95
2019-04-05T04:07:28.713Z,110.92
2019-04-05T04:09:57.540Z,118.87
2019-04-05T04:12:26.388Z,103.15
2019-04-05T04:14:57.404Z,116.55
2019-04-05T04:17:26.501Z,124.72
2019-04-05T04:19:55.491Z,116.28
2019-04-05T04:22:31.236Z,129.18
2019-04-05T04:25:00.750Z,120.95
2019-04-05T04:27:30.103Z,117.70
2019-04-05T04:30:00.518Z,110.60
2019-04-05T04:32:29.960Z,91.05
2019-04-05T04:34:59.191Z,113.88
2019-04-05T04:37:28.499Z,109.67
2019-04-05T04:39:57.840Z,108.05
2019-04-05T04:42:27.133Z,92.78
2019-04-05T04:44:55.973Z,92.55
2019-04-05T04:47:27.405Z,98.82
2019-04-05T04:49:57.899Z,85.05
2019-04-05T04:52:31.038Z,76.15
2019-04-05T04:54:59.479Z,84.45
2019-04-05T04:57:28.439Z,88.33
2019-04-05T04:59:57.633Z,80.42
2019-04-05T05:02:26.882Z,87.42
2019-04-05T05:04:55.733Z,80.80
2019-04-05T05:07:24.499Z,79.95
2019-04-05T05:09:53.336Z,80.85
2019-04-05T05:12:22.438Z,83.72
2019-04-05T05:14:51.209Z,87.08
2019-04-05T05:17:20.075Z,79.40
2019-04-05T05:19:49.107Z,83.33
2019-04-05T05:22:17.980Z,81.87
2019-04-05T05:24:47.089Z,73.52
2019-04-05T05:27:16.054Z,79.03
2019-04-05T05:29:45.329Z,81.32
2019-04-05T05:32:14.530Z,78.52
2019-04-05T05:34:43.376Z,75.97
2019-04-05T05:37:12.413Z,78.62
2019-04-05T05:39:41.085Z,72.80
2019-04-05T05:42:09.793Z,83.17
2019-04-05T05:44:38.725Z,78.37
2019-04-05T05:47:07.725Z,75.25
2019-04-05T05:49:36.678Z,76.50
2019-04-05T05:52:05.749Z,76.55
2019-04-05T05:54:34.530Z,72.82
2019-04-05T05:57:03.677Z,86.45
2019-04-05T05:59:32.394Z,78.62
2019-04-05T06:02:03.680Z,68.07
2019-04-05T06:04:32.405Z,72.75
2019-04-05T06:07:01.587Z,67.85
2019-04-05T06:09:30.799Z,60.10
2019-04-05T06:11:59.671Z,64.17
2019-04-05T06:14:28.639Z,63.48
2019-04-05T06:16:57.337Z,69.53
2019-04-05T06:19:26.073Z,62.13
2019-04-05T06:21:54.856Z,66.65
2019-04-05T06:24:23.572Z,60.78
2019-04-05T06:26:53.041Z,67.95
2019-04-05T06:29:21.737Z,62.88
2019-04-05T06:31:50.538Z,75.57
2019-04-05T06:34:19.587Z,60.00
2019-04-05T06:36:51.086Z,68.00
2019-04-05T06:39:20.649Z,74.27
2019-04-05T06:41:49.522Z,77.78
2019-04-05T06:44:18.222Z,79.80
2019-04-05T06:46:46.914Z,72.30
2019-04-05T06:49:15.641Z,72.03
2019-04-05T06:51:44.596Z,69.03
2019-04-05T06:54:13.773Z,70.50
2019-04-05T06:56:42.703Z,78.37
2019-04-05T06:59:11.767Z,69.25
2019-04-05T07:01:40.462Z,71.02
2019-04-05T07:04:09.401Z,74.65
2019-04-05T07:06:38.071Z,72.37
2019-04-05T07:09:07.284Z,77.87
2019-04-05T07:11:36.056Z,72.17
2019-04-05T07:14:04.818Z,80.40
2019-04-05T07:16:33.669Z,70.32
2019-04-05T07:19:02.706Z,70.83
2019-04-05T07:21:31.394Z,72.17
2019-04-05T07:24:00.342Z,79.58
2019-04-05T07:26:29.554Z,78.42
2019-04-05T07:28:58.378Z,68.75
2019-04-05T07:31:27.051Z,75.65
2019-04-05T07:33:56.313Z,64.45
2019-04-05T07:36:25.517Z,73.20
2019-04-05T07:38:54.220Z,79.35
2019-04-05T07:41:23.078Z,70.40
2019-04-05T07:43:51.820Z,86.47
2019-04-05T07:46:20.586Z,69.92
2019-04-05T07:48:49.294Z,70.62
2019-04-05T07:51:17.982Z,74.03
2019-04-05T07:53:46.691Z,74.60
2019-04-05T07:56:15.431Z,77.00
2019-04-05T07:58:44.727Z,64.35
2019-04-05T08:01:14.354Z,75.10
2019-04-05T08:03:43.210Z,81.25
2019-04-05T08:06:12.556Z,78.87
2019-04-05T08:08:57.647Z,86.75
2019-04-05T08:11:27.482Z,83.52
2019-04-05T08:13:58.224Z,87.55
2019-04-05T08:16:27.055Z,83.60
2019-04-05T08:18:58.057Z,77.78
2019-04-05T08:21:26.670Z,88.35
2019-04-05T08:23:55.410Z,85.55
2019-04-05T08:26:24.321Z,80.45
2019-04-05T08:28:53.274Z,83.67
2019-04-05T08:31:22.465Z,70.12
2019-04-05T08:33:51.940Z,84.52
2019-04-05T08:36:20.724Z,77.82
2019-04-05T08:38:49.739Z,91.72
2019-04-05T08:41:18.417Z,87.67
2019-04-05T08:43:47.690Z,88.07
2019-04-05T08:46:16.615Z,79.30
2019-04-05T08:48:45.363Z,84.60
2019-04-05T08:51:14.286Z,84.10
2019-04-05T08:53:42.985Z,88.00
2019-04-05T08:56:11.934Z,82.35
2019-04-05T08:58:40.656Z,82.57
2019-04-05T09:01:09.391Z,83.33
2019-04-05T09:03:38.373Z,70.10
2019-04-05T09:06:07.322Z,77.25
2019-04-05T09:08:36.272Z,70.78
2019-04-05T09:11:05.044Z,68.62
2019-04-05T09:13:33.714Z,73.15
2019-04-05T09:16:02.654Z,73.20
2019-04-05T09:18:31.409Z,70.52
2019-04-05T09:21:00.110Z,74.35
2019-04-05T09:23:28.815Z,69.05
2019-04-05T09:25:57.766Z,75.78
2019-04-05T09:28:26.475Z,78.70
2019-04-05T09:30:56.937Z,83.55
2019-04-05T09:33:25.631Z,83.75
2019-04-05T09:35:54.334Z,84.62
2019-04-05T09:38:23.027Z,81.40
2019-04-05T09:40:51.856Z,70.35
2019-04-05T09:43:20.748Z,77.85
2019-04-05T09:45:49.528Z,79.58
2019-04-05T09:48:18.457Z,79.03
2019-04-05T09:50:47.418Z,73.52
2019-04-05T09:53:16.243Z,78.70
2019-04-05T09:55:45.022Z,82.50
2019-04-05T09:58:13.664Z,83.17
2019-04-05T10:00:42.371Z,79.10
2019-04-05T10:03:11.092Z,89.03
2019-04-05T10:05:40.074Z,79.45
2019-04-05T10:08:08.966Z,79.67
2019-04-05T10:10:37.988Z,78.50
2019-04-05T10:13:09.640Z,79.15
2019-04-05T10:15:37.171Z,81.92
2019-04-05T10:18:06.006Z,82.67
2019-04-05T10:20:34.989Z,86.95
2019-04-05T10:23:03.825Z,85.15
2019-04-05T10:25:32.764Z,87.37
2019-04-05T10:28:01.944Z,87.55
2019-04-05T10:30:30.720Z,80.12
2019-04-05T10:32:59.643Z,84.90
2019-04-05T10:35:28.357Z,84.65
2019-04-05T10:37:58.482Z,92.82
2019-04-05T10:40:27.369Z,86.85
2019-04-05T10:42:56.095Z,89.72
2019-04-05T10:45:25.297Z,87.40
2019-04-05T10:47:53.976Z,88.52
2019-04-05T10:50:23.073Z,80.55
2019-04-05T10:52:52.021Z,89.87
2019-04-05T10:55:20.978Z,88.55
2019-04-05T10:57:49.920Z,90.15
2019-04-05T11:00:19.462Z,86.10
2019-04-05T11:02:48.184Z,85.22
2019-04-05T11:05:17.037Z,93.62
2019-04-05T11:07:45.730Z,85.85
2019-04-05T11:10:15.105Z,93.95
2019-04-05T11:12:43.838Z,89.58
2019-04-05T11:15:15.112Z,86.85
2019-04-05T11:17:43.405Z,97.53
2019-04-05T11:20:21.099Z,84.85
2019-04-05T11:22:46.537Z,84.00
2019-04-05T11:25:14.585Z,79.87
2019-04-05T11:27:43.552Z,89.42
2019-04-05T11:30:14.363Z,95.80
2019-04-05T11:32:43.140Z,88.03
2019-04-05T11:35:14.917Z,87.95
2019-04-05T11:37:42.806Z,81.45
2019-04-05T11:40:13.067Z,80.32
2019-04-05T11:42:43.306Z,88.95
2019-04-05T11:45:12.145Z,90.12
2019-04-05T11:47:42.709Z,90.25
2019-04-05T11:50:12.801Z,83.10
2019-04-05T11:52:41.508Z,80.95
2019-04-05T11:55:10.607Z,82.40
2019-04-05T11:57:41.474Z,81.67
2019-04-05T12:00:16.182Z,83.20
2019-04-05T12:02:48.623Z,84.40
2019-04-05T12:05:20.348Z,78.15
2019-04-05T12:07:49.304Z,86.20
2019-04-05T12:10:19.528Z,81.08
2019-04-05T12:12:48.626Z,80.87
2019-04-05T12:15:17.471Z,88.58
2019-04-05T12:17:46.412Z,90.97
2019-04-05T12:20:15.822Z,79.35
2019-04-05T12:22:44.581Z,74.45
2019-04-05T12:25:13.600Z,71.75
2019-04-05T12:27:42.293Z,75.83
2019-04-05T12:30:13.563Z,84.90
2019-04-05T12:32:42.511Z,100.38
2019-04-05T12:35:11.385Z,73.15
2019-04-05T12:37:50.230Z,73.30
2019-04-05T12:40:11.322Z,84.70
2019-04-05T12:42:43.516Z,76.87
2019-04-05T12:45:15.267Z,84.58
2019-04-05T12:47:45.547Z,73.67
2019-04-05T12:50:15.394Z,83.40
2019-04-05T12:52:44.724Z,74.97
2019-04-05T12:55:13.874Z,82.40
2019-04-05T12:57:42.579Z,80.67
2019-04-05T13:00:14.705Z,86.63
2019-04-05T13:02:43.548Z,86.82
2019-04-05T13:05:14.980Z,86.97
2019-04-05T13:07:43.940Z,78.83
2019-04-05T13:10:13.769Z,84.58
2019-04-05T13:12:42.718Z,77.78
2019-04-05T13:15:16.869Z,72.55
2019-04-05T13:17:42.194Z,72.60
2019-04-05T13:20:11.642Z,84.45
2019-04-05T13:22:40.359Z,93.27
2019-04-05T13:25:11.091Z,84.52
2019-04-05T13:27:41.509Z,85.72
2019-04-05T13:30:10.268Z,86.63
2019-04-05T13:32:38.983Z,88.50
2019-04-05T13:35:08.321Z,96.28
2019-04-05T13:37:37.103Z,83.37
2019-04-05T13:40:07.357Z,93.20
2019-04-05T13:42:36.357Z,86.37
2019-04-05T13:45:05.649Z,84.00
2019-04-05T13:47:37.916Z,89.22
2019-04-05T13:50:06.248Z,85.28
2019-04-05T13:52:35.205Z,87.50
2019-04-05T13:55:03.992Z,76.60
2019-04-05T13:57:32.931Z,82.67
2019-04-05T14:00:01.622Z,87.20
2019-04-05T14:02:30.380Z,88.55
2019-04-05T14:04:59.355Z,91.08
2019-04-05T14:07:28.054Z,84.10
2019-04-05T14:09:56.984Z,101.22
2019-04-05T14:12:25.942Z,89.80
2019-04-05T14:14:54.908Z,83.10
2019-04-05T14:17:23.858Z,80.03
2019-04-05T14:19:52.568Z,90.90
2019-04-05T14:22:22.489Z,91.55
2019-04-05T14:24:52.550Z,90.05
2019-04-05T14:27:22.415Z,93.62
2019-04-05T14:29:51.614Z,97.33
2019-04-05T14:32:21.897Z,79.00
2019-04-05T14:34:54.766Z,79.72
2019-04-05T14:37:24.949Z,79.90
2019-04-05T14:39:53.137Z,78.90
2019-04-05T14:42:22.322Z,78.12
2019-04-05T14:44:51.021Z,95.15
2019-04-05T14:47:20.057Z,84.17
2019-04-05T14:49:48.880Z,78.85
2019-04-05T14:52:17.795Z,83.72
2019-04-05T14:54:46.580Z,82.92
2019-04-05T14:57:15.265Z,84.13
2019-04-05T14:59:44.200Z,84.17
2019-04-05T15:02:12.929Z,95.25
2019-04-05T15:04:41.854Z,85.30
2019-04-05T15:07:13.785Z,79.37
2019-04-05T15:09:42.487Z,78.12
2019-04-05T15:12:11.725Z,76.00
2019-04-05T15:14:41.120Z,78.87
2019-04-05T15:17:10.090Z,84.90
2019-04-05T15:19:39.212Z,88.55
2019-04-05T15:22:10.740Z,82.95
2019-04-05T15:24:38.487Z,83.60
2019-04-05T15:27:07.239Z,81.78
2019-04-05T15:29:35.931Z,92.12
2019-04-05T15:32:04.850Z,83.70
2019-04-05T15:34:33.872Z,85.77
2019-04-05T15:37:02.744Z,83.92
2019-04-05T15:39:32.299Z,87.72
2019-04-05T15:42:01.381Z,86.80
2019-04-05T15:44:30.094Z,87.40
2019-04-05T15:46:58.773Z,88.17
2019-04-05T15:49:27.474Z,82.42
2019-04-05T15:51:58.895Z,86.63
2019-04-05T15:54:28.932Z,89.90
2019-04-05T15:56:58.126Z,88.62
2019-04-05T15:59:27.172Z,97.80
2019-04-05T16:01:56.295Z,94.90
2019-04-05T16:04:25.131Z,107.30
2019-04-05T16:06:54.630Z,88.95
2019-04-05T16:09:24.069Z,96.17
2019-04-05T16:11:52.878Z,105.58
2019-04-05T16:14:22.147Z,97.45
2019-04-05T16:16:51.081Z,107.63
2019-04-05T16:19:19.776Z,110.08
2019-04-05T16:21:48.731Z,102.17
2019-04-05T16:24:17.431Z,103.38
2019-04-05T16:26:46.360Z,106.70
2019-04-05T16:29:15.189Z,105.87
2019-04-05T16:31:43.907Z,114.45
2019-04-05T16:34:13.237Z,109.20
2019-04-05T16:36:42.194Z,98.20
2019-04-05T16:39:20.929Z,110.92
2019-04-05T16:41:50.303Z,102.90
2019-04-05T16:44:19.000Z,101.97
2019-04-05T16:46:47.721Z,104.60
2019-04-05T16:49:16.628Z,107.12
2019-04-05T16:51:46.823Z,110.40
2019-04-05T16:54:16.334Z,110.70
2019-04-05T16:56:45.728Z,121.20
2019-04-05T16:59:15.232Z,112.85
2019-04-05T17:01:44.941Z,111.80
2019-04-05T17:04:17.244Z,128.42
2019-04-05T17:06:48.036Z,109.85
2019-04-05T17:09:17.008Z,97.45
2019-04-05T17:11:46.619Z,113.57
2019-04-05T17:14:16.252Z,108.52
2019-04-05T17:16:46.437Z,110.05
2019-04-05T17:19:16.685Z,109.27
2019-04-05T17:21:47.140Z,115.77
2019-04-05T17:24:18.068Z,120.28
2019-04-05T17:26:51.093Z,111.62
2019-04-05T17:29:21.812Z,112.52
2019-04-05T17:31:52.172Z,126.15
2019-04-05T17:34:21.776Z,110.92
2019-04-05T17:36:50.817Z,114.45
2019-04-05T17:39:19.761Z,112.92
2019-04-05T17:41:48.458Z,120.53
2019-04-05T17:44:17.235Z,132.47
2019-04-05T17:46:45.944Z,135.15
2019-04-05T17:49:14.880Z,120.87
2019-04-05T17:51:43.563Z,125.87
2019-04-05T17:54:13.031Z,124.07
2019-04-05T17:56:42.124Z,139.40
2019-04-05T17:59:10.876Z,160.50
2019-04-05T18:01:39.587Z,149.90
2019-04-05T18:04:08.894Z,110.10
2019-04-05T18:06:37.980Z,110.63
2019-04-05T18:09:10.140Z,127.00
2019-04-05T18:11:39.136Z,118.70
2019-04-05T18:14:08.289Z,139.37
2019-04-05T18:16:38.338Z,124.60
2019-04-05T18:19:07.477Z,130.25
2019-04-05T18:21:37.263Z,131.32
2019-04-05T18:24:07.146Z,126.67
2019-04-05T18:26:36.102Z,136.25
2019-04-05T18:29:04.860Z,158.85
2019-04-05T18:31:33.796Z,137.57
2019-04-05T18:34:02.465Z,141.55
2019-04-05T18:36:31.163Z,164.60
2019-04-05T18:39:00.099Z,180.00
2019-04-05T18:41:31.154Z,172.32
2019-04-05T18:43:59.837Z,174.60
2019-04-05T18:46:29.046Z,169.65
2019-04-05T18:48:57.726Z,149.65
2019-04-05T18:51:26.993Z,168.65
2019-04-05T18:53:55.678Z,162.82
2019-04-05T18:56:24.620Z,156.28
2019-04-05T18:58:53.328Z,160.10
2019-04-05T19:01:22.043Z,150.78
2019-04-05T19:03:50.789Z,161.10
2019-04-05T19:06:21.913Z,166.43
2019-04-05T19:08:50.586Z,152.00
2019-04-05T19:11:19.274Z,159.50
2019-04-05T19:14:00.615Z,164.20
2019-04-05T19:16:20.244Z,162.20
2019-04-05T19:18:48.917Z,165.60
2019-04-05T19:21:20.535Z,153.00
2019-04-05T19:23:51.393Z,162.32
2019-04-05T19:26:20.466Z,170.22
2019-04-05T19:28:49.456Z,166.43
2019-04-05T19:48:53.247Z,148.65
2019-04-05T19:51:22.581Z,158.82
2019-04-05T19:54:00.807Z,156.67
2019-04-05T19:56:21.984Z,155.65
2019-04-05T19:58:50.914Z,160.95
2019-04-05T20:01:19.650Z,166.88
2019-04-05T20:03:48.470Z,171.35
2019-04-05T20:06:17.175Z,160.18
2019-04-05T20:08:45.863Z,166.05
2019-04-05T20:11:15.053Z,158.10
2019-04-05T20:13:44.204Z,192.07
2019-04-05T20:16:12.981Z,253.00
2019-04-05T20:18:42.472Z,208.23
2019-04-05T20:21:11.429Z,214.05
2019-04-05T20:23:47.494Z,246.82
2019-04-05T20:26:11.045Z,236.12
2019-04-05T20:28:39.985Z,209.35
2019-04-05T20:31:08.672Z,188.22
2019-04-05T20:33:37.376Z,208.10
2019-04-05T20:36:06.145Z,192.00
2019-04-05T20:38:35.090Z,179.85
2019-04-05T20:41:03.791Z,169.68
2019-04-05T20:43:32.515Z,168.60
2019-04-05T20:46:01.449Z,169.85
2019-04-05T20:48:30.215Z,187.32
2019-04-05T20:50:59.139Z,171.75
2019-04-05T20:53:28.170Z,183.95
2019-04-05T20:55:56.945Z,177.53
2019-04-05T20:58:25.639Z,182.95
2019-04-05T21:00:54.680Z,196.72
2019-04-05T21:03:23.374Z,203.37
2019-04-05T21:05:52.409Z,216.75
2019-04-05T21:08:21.275Z,193.10
2019-04-05T21:10:49.975Z,203.18
2019-04-05T21:13:19.545Z,171.80
2019-04-05T21:15:48.216Z,175.80
2019-04-05T21:18:17.162Z,191.45
2019-04-05T21:20:46.322Z,247.42
2019-04-05T21:23:15.273Z,249.62
2019-04-05T21:25:44.196Z,204.38
2019-04-05T21:28:13.152Z,287.23
2019-04-05T21:30:41.841Z,265.62
2019-04-05T21:33:10.809Z,247.40
2019-04-05T21:35:39.574Z,325.55
2019-04-05T21:38:08.324Z,254.70
2019-04-05T21:40:37.249Z,290.82
2019-04-05T21:43:06.079Z,234.95
2019-04-05T21:45:34.816Z,271.23
2019-04-05T21:48:03.514Z,236.32
2019-04-05T21:50:32.202Z,195.75
2019-04-05T21:53:00.948Z,221.90
2019-04-05T21:55:29.578Z,245.17
2019-04-05T21:57:58.338Z,265.75
2019-04-05T22:00:33.429Z,192.68
2019-04-05T22:03:02.404Z,220.75
2019-04-05T22:05:31.108Z,201.18
2019-04-05T22:08:00.155Z,220.00
2019-04-05T22:10:31.893Z,196.82
2019-04-05T22:13:00.952Z,197.47
2019-04-05T22:15:29.639Z,205.52
2019-04-05T22:17:58.683Z,183.37
2019-04-05T22:20:27.869Z,199.17
2019-04-05T22:22:56.584Z,178.18
2019-04-05T22:25:25.971Z,216.38
2019-04-05T22:27:54.958Z,188.40
2019-04-05T22:30:23.718Z,169.95
2019-04-05T22:32:52.431Z,212.88
2019-04-05T22:35:21.412Z,196.43
2019-04-05T22:37:50.097Z,211.45
2019-04-05T22:40:18.797Z,238.80
2019-04-05T22:42:47.484Z,206.45
2019-04-05T22:45:16.252Z,216.20
2019-04-05T22:47:44.930Z,202.70
2019-04-05T22:50:13.725Z,169.28
2019-04-05T22:52:43.280Z,180.35
2019-04-05T22:55:12.247Z,207.98
2019-04-05T22:57:41.201Z,193.82
2019-04-05T23:00:10.963Z,202.72
2019-04-05T23:02:42.054Z,210.28
2019-04-05T23:05:11.014Z,201.20
2019-04-05T23:07:40.269Z,201.55
2019-04-05T23:10:10.101Z,186.60
2019-04-05T23:12:39.234Z,213.87
2019-04-05T23:15:08.688Z,190.77
2019-04-05T23:17:37.779Z,183.30
2019-04-05T23:20:07.299Z,194.28
2019-04-05T23:22:36.393Z,217.50
2019-04-05T23:25:05.316Z,180.27
2019-04-05T23:27:34.309Z,197.85
2019-04-05T23:30:03.972Z,202.15
2019-04-05T23:32:33.235Z,201.10
2019-04-05T23:35:02.230Z,218.22
2019-04-05T23:37:30.796Z,209.07
2019-04-05T23:39:59.515Z,198.87
2019-04-05T23:42:28.528Z,192.25
2019-04-05T23:44:57.838Z,219.72
2019-04-05T23:47:26.533Z,192.60
2019-04-05T23:49:56.834Z,213.15
2019-04-05T23:52:25.830Z,226.98
2019-04-05T23:54:54.960Z,201.65
2019-04-05T23:57:23.648Z,225.85
2019-04-05T23:59:52.663Z,212.08
